Time;durP1;ratioP1;P1;durP2;ratioP2;P2;SDS_P1;SDS_P2;PMS_P1;PMS_P2;Temp;Humidity;BMP_temperature;BMP_pressure;BME280_temperature;BME280_humidity;BME280_pressure;Samples;Min_cycle;Max_cycle;Signal;HPM_P1;HPM_P2
2021/06/16 00:00:13;;;;;;;;;;;26.70;97.20;;;;;;1809061;78;20262;-88
2021/06/16 00:02:43;;;;;;;;;;;26.70;97.20;;;;;;1810481;77;20456;-89
2021/06/16 00:05:14;;;;;;;;;;;26.70;97.20;;;;;;1804645;78;20247;-87
2021/06/16 00:07:44;;;;;;;;;;;26.70;97.30;;;;;;1808783;78;20197;-89
2021/06/16 00:10:17;;;;;;;;;;;26.70;97.30;;;;;;1810125;78;20164;-89
2021/06/16 00:12:49;;;;;;;;;;;26.70;97.30;;;;;;1809430;78;20192;-89
2021/06/16 00:15:20;;;;;;;;;;;26.80;97.30;;;;;;1808347;77;20196;-88
2021/06/16 00:17:51;;;;;;;;;;;26.80;97.30;;;;;;1819598;78;20141;-88
2021/06/16 00:20:20;;;;;;;;;;;26.80;97.30;;;;;;1824207;78;20284;-88
2021/06/16 00:22:53;;;;;;;;;;;26.90;97.30;;;;;;1827056;77;20330;-88
2021/06/16 00:25:26;;;;;;;;;;;26.90;97.40;;;;;;1826832;78;20542;-89
2021/06/16 00:27:56;;;;;;;;;;;26.90;97.30;;;;;;1824903;77;20440;-88
2021/06/16 00:30:26;;;;;;;;;;;27.00;97.30;;;;;;1828764;77;20547;-89
2021/06/16 00:32:59;;;;;;;;;;;27.00;97.10;;;;;;1822734;77;20221;-89
2021/06/16 00:35:28;;;;;;;;;;;27.10;96.90;;;;;;1808333;77;20160;-89
2021/06/16 00:37:59;;;;;;;;;;;27.10;96.80;;;;;;1849733;76;20180;-88
2021/06/16 00:40:50;;;;;;;;;;;27.10;96.70;;;;;;1848034;77;20179;-88
2021/06/16 00:43:19;;;;;;;;;;;27.10;96.80;;;;;;1843830;77;20619;-88
2021/06/16 00:45:48;;;;;;;;;;;27.10;96.70;;;;;;1834062;78;20186;-87
2021/06/16 00:48:18;;;;;;;;;;;27.10;97.20;;;;;;1849010;77;20622;-88
2021/06/16 00:50:48;;;;;;;;;;;27.10;96.70;;;;;;1806679;78;20205;-88
2021/06/16 00:53:18;;;;;;;;;;;27.10;96.70;;;;;;1815456;78;20189;-89
2021/06/16 00:55:48;;;;;;;;;;;27.10;96.70;;;;;;1796162;78;20312;-88
2021/06/16 00:58:19;;;;;;;;;;;27.20;96.90;;;;;;1818093;78;20134;-88
2021/06/16 01:00:50;;;;;;;;;;;27.20;96.90;;;;;;1785790;79;20546;-88
2021/06/16 01:03:21;;;;;;;;;;;27.20;97.00;;;;;;1793468;78;20642;-89
2021/06/16 01:05:54;;;;;;;;;;;27.20;97.10;;;;;;1810963;78;20241;-88
2021/06/16 01:08:28;;;;;;;;;;;27.30;97.00;;;;;;1752381;80;20217;-88
2021/06/16 01:10:59;;;;;;;;;;;27.30;97.10;;;;;;1786981;80;20188;-89
2021/06/16 01:13:29;;;;;;;;;;;27.30;96.90;;;;;;1790871;79;20190;-88
2021/06/16 01:16:01;;;;;;;;;;;27.30;96.90;;;;;;1781280;79;20233;-88
2021/06/16 01:18:32;;;;;;;;;;;27.40;96.80;;;;;;1791907;79;20169;-88
2021/06/16 01:21:02;;;;;;;;;;;27.40;96.70;;;;;;1772814;79;20204;-88
2021/06/16 01:23:33;;;;;;;;;;;27.50;96.70;;;;;;1787454;79;20191;-86
2021/06/16 01:26:03;;;;;;;;;;;27.50;96.60;;;;;;1774704;79;20169;-86
2021/06/16 01:28:38;;;;;;;;;;;27.50;96.60;;;;;;1835687;77;20241;-87
2021/06/16 01:31:05;;;;;;;;;;;27.50;96.50;;;;;;1794507;79;20253;-89
2021/06/16 01:33:35;;;;;;;;;;;27.50;96.40;;;;;;1790663;79;20260;-87
2021/06/16 01:36:06;;;;;;;;;;;27.60;96.60;;;;;;1797361;79;20259;-86
2021/06/16 01:38:36;;;;;;;;;;;27.60;96.60;;;;;;1822997;78;20194;-86
2021/06/16 01:41:07;;;;;;;;;;;27.70;96.70;;;;;;1806096;78;20204;-87
2021/06/16 01:43:55;;;;;;;;;;;27.70;96.30;;;;;;1875404;75;20202;-86
2021/06/16 01:46:26;;;;;;;;;;;27.80;96.20;;;;;;1843310;76;20185;-76
2021/06/16 01:48:57;;;;;;;;;;;27.90;95.90;;;;;;1847409;76;20296;-75
2021/06/16 01:51:27;;;;;;;;;;;27.90;96.10;;;;;;1843208;76;20229;-75
2021/06/16 01:53:57;;;;;;;;;;;27.90;95.90;;;;;;1806208;78;20480;-76
2021/06/16 01:56:28;;;;;;;;;;;28.00;95.90;;;;;;1804377;78;20239;-75
2021/06/16 01:58:58;;;;;;;;;;;28.10;95.90;;;;;;1785930;80;20493;-76
2021/06/16 02:01:29;;;;;;;;;;;28.20;96.10;;;;;;1802169;78;20209;-75
2021/06/16 02:04:02;;;;;;;;;;;28.20;96.60;;;;;;1798898;78;20172;-75
2021/06/16 02:06:34;;;;;;;;;;;28.10;95.50;;;;;;1762445;81;20451;-76
2021/06/16 02:09:05;;;;;;;;;;;28.10;95.60;;;;;;1794149;78;20210;-75
2021/06/16 02:11:36;;;;;;;;;;;28.00;95.60;;;;;;1777447;80;20253;-76
2021/06/16 02:14:06;;;;;;;;;;;27.90;95.90;;;;;;1794081;78;20180;-75
2021/06/16 02:16:37;;;;;;;;;;;27.90;96.50;;;;;;1792208;79;20176;-76
2021/06/16 02:19:08;;;;;;;;;;;27.80;96.80;;;;;;1807635;78;20219;-76
2021/06/16 02:21:38;;;;;;;;;;;27.70;96.70;;;;;;1787872;79;20264;-76
2021/06/16 02:24:08;;;;;;;;;;;27.70;96.60;;;;;;1791599;78;20200;-76
2021/06/16 02:26:38;;;;;;;;;;;27.70;96.90;;;;;;1797991;78;20207;-75
2021/06/16 02:29:10;;;;;;;;;;;27.70;96.90;;;;;;1788093;80;20252;-75
2021/06/16 02:31:40;;;;;;;;;;;27.80;97.20;;;;;;1802487;78;20212;-77
2021/06/16 02:34:11;;;;;;;;;;;27.90;97.00;;;;;;1812245;78;20217;-75
2021/06/16 02:36:41;;;;;;;;;;;28.00;97.00;;;;;;1798784;78;20257;-77
2021/06/16 02:39:13;;;;;;;;;;;28.10;96.70;;;;;;1805144;78;20175;-76
2021/06/16 02:41:43;;;;;;;;;;;28.20;95.90;;;;;;1817445;78;20235;-76
2021/06/16 02:44:17;;;;;;;;;;;28.20;95.40;;;;;;1776727;79;20236;-76
2021/06/16 02:46:52;;;;;;;;;;;28.20;95.70;;;;;;1858016;76;20147;-76
2021/06/16 02:49:23;;;;;;;;;;;28.30;95.40;;;;;;1850151;76;20733;-75
2021/06/16 02:51:54;;;;;;;;;;;28.30;94.70;;;;;;1849705;76;20218;-75
2021/06/16 02:54:24;;;;;;;;;;;28.30;94.50;;;;;;1867405;76;20163;-74
2021/06/16 02:56:54;;;;;;;;;;;28.30;94.60;;;;;;1847809;76;20167;-75
2021/06/16 02:59:24;;;;;;;;;;;28.40;94.40;;;;;;1845155;76;20228;-75
2021/06/16 03:01:54;;;;;;;;;;;28.40;93.90;;;;;;1837744;76;20521;-75
2021/06/16 03:04:24;;;;;;;;;;;28.40;93.50;;;;;;1847942;76;20478;-75
2021/06/16 03:06:54;;;;;;;;;;;28.50;93.50;;;;;;1846484;76;20418;-75
2021/06/16 03:09:25;;;;;;;;;;;28.50;93.10;;;;;;1854970;76;20217;-75
2021/06/16 03:11:55;;;;;;;;;;;28.60;93.00;;;;;;1822639;77;20224;-75
2021/06/16 03:14:26;;;;;;;;;;;28.70;93.40;;;;;;1811851;78;20219;-76
2021/06/16 03:16:58;;;;;;;;;;;28.80;93.70;;;;;;1808606;78;20184;-76
2021/06/16 03:19:28;;;;;;;;;;;28.80;93.10;;;;;;1808264;78;20262;-75
2021/06/16 03:21:58;;;;;;;;;;;28.90;93.40;;;;;;1809274;78;20237;-77
2021/06/16 03:24:28;;;;;;;;;;;29.00;92.40;;;;;;1804038;78;20217;-77
2021/06/16 03:26:58;;;;;;;;;;;29.10;92.70;;;;;;1821789;78;20206;-76
2021/06/16 03:29:30;;;;;;;;;;;29.10;93.00;;;;;;1812439;78;20267;-79
2021/06/16 03:32:01;;;;;;;;;;;29.20;92.90;;;;;;1807136;78;20252;-76
2021/06/16 03:34:31;;;;;;;;;;;29.30;92.30;;;;;;1820659;78;20186;-76
2021/06/16 03:37:05;;;;;;;;;;;29.40;91.10;;;;;;1816410;77;20218;-76
2021/06/16 03:39:38;;;;;;;;;;;29.50;90.30;;;;;;1825919;77;20217;-75
2021/06/16 03:42:08;;;;;;;;;;;29.60;90.20;;;;;;1847573;78;20154;-76
2021/06/16 03:44:39;;;;;;;;;;;29.60;90.60;;;;;;1867596;77;20521;-75
2021/06/16 03:47:09;;;;;;;;;;;29.70;90.50;;;;;;1838827;76;20143;-76
2021/06/16 03:49:40;;;;;;;;;;;29.70;89.40;;;;;;1825652;78;20179;-75
2021/06/16 03:52:10;;;;;;;;;;;29.60;90.10;;;;;;1832675;77;20237;-74
2021/06/16 03:54:41;;;;;;;;;;;29.70;90.40;;;;;;1822473;77;20561;-75
2021/06/16 03:57:11;;;;;;;;;;;29.70;89.50;;;;;;1825126;78;20224;-75
2021/06/16 03:59:41;;;;;;;;;;;29.70;89.60;;;;;;1813804;77;20190;-75
2021/06/16 04:02:11;;;;;;;;;;;29.70;90.30;;;;;;1829522;77;20660;-75
2021/06/16 04:04:41;;;;;;;;;;;29.80;90.40;;;;;;1873842;77;20237;-75
2021/06/16 04:07:12;;;;;;;;;;;29.80;90.50;;;;;;1844603;76;20179;-76
2021/06/16 04:09:42;;;;;;;;;;;29.80;89.90;;;;;;1847472;77;20224;-77
2021/06/16 04:12:12;;;;;;;;;;;29.80;90.40;;;;;;1840592;77;20182;-76
2021/06/16 04:14:42;;;;;;;;;;;29.80;90.30;;;;;;1846394;76;20481;-77
2021/06/16 04:17:12;;;;;;;;;;;29.70;90.20;;;;;;1840932;76;20213;-76
2021/06/16 04:19:42;;;;;;;;;;;29.60;90.70;;;;;;1845976;78;20206;-76
2021/06/16 04:22:12;;;;;;;;;;;29.60;91.00;;;;;;1844724;77;20194;-76
2021/06/16 04:24:42;;;;;;;;;;;29.50;91.10;;;;;;1837635;76;20245;-76
2021/06/16 04:27:12;;;;;;;;;;;29.50;91.70;;;;;;1826975;77;20241;-76
2021/06/16 04:29:42;;;;;;;;;;;29.40;91.50;;;;;;1821922;78;20186;-76
2021/06/16 04:32:12;;;;;;;;;;;29.40;91.20;;;;;;1841666;77;20164;-77
2021/06/16 04:34:42;;;;;;;;;;;29.40;91.20;;;;;;1835054;77;20190;-76
2021/06/16 04:37:12;;;;;;;;;;;29.50;91.30;;;;;;1832972;78;20197;-76
2021/06/16 04:39:43;;;;;;;;;;;29.50;91.10;;;;;;1856265;77;20187;-76
2021/06/16 04:42:13;;;;;;;;;;;29.60;91.00;;;;;;1863418;77;20226;-77
2021/06/16 04:44:43;;;;;;;;;;;29.60;91.50;;;;;;1835978;77;20206;-77
2021/06/16 04:47:13;;;;;;;;;;;29.70;91.20;;;;;;1770269;78;20139;-77
2021/06/16 04:49:44;;;;;;;;;;;29.90;90.90;;;;;;1770671;81;20172;-77
2021/06/16 04:52:14;;;;;;;;;;;30.00;90.90;;;;;;1779596;78;20188;-77
2021/06/16 04:54:43;;;;;;;;;;;30.10;90.50;;;;;;1769652;79;20234;-78
2021/06/16 04:57:13;;;;;;;;;;;30.10;90.20;;;;;;1783931;79;20231;-76
2021/06/16 04:59:43;;;;;;;;;;;30.10;90.20;;;;;;1778296;78;20222;-75
2021/06/16 05:02:13;;;;;;;;;;;30.10;90.10;;;;;;1796175;79;20587;-76
2021/06/16 05:04:43;;;;;;;;;;;30.10;90.40;;;;;;1808890;79;20467;-75
2021/06/16 05:07:12;;;;;;;;;;;30.20;90.20;;;;;;1790904;80;20149;-76
2021/06/16 05:09:42;;;;;;;;;;;30.40;89.90;;;;;;1779950;79;20265;-76
2021/06/16 05:12:12;;;;;;;;;;;30.60;88.90;;;;;;1760498;80;20169;-77
2021/06/16 05:14:42;;;;;;;;;;;30.70;88.40;;;;;;1800254;78;20227;-76
2021/06/16 05:17:12;;;;;;;;;;;30.80;87.20;;;;;;1785359;78;20208;-76
2021/06/16 05:19:44;;;;;;;;;;;30.70;87.40;;;;;;1778495;78;20226;-75
2021/06/16 05:22:14;;;;;;;;;;;30.70;88.30;;;;;;1778240;79;20208;-76
2021/06/16 05:24:44;;;;;;;;;;;30.70;88.20;;;;;;1778242;78;20245;-75
2021/06/16 05:27:15;;;;;;;;;;;30.70;87.80;;;;;;1781113;79;20200;-75
2021/06/16 05:29:45;;;;;;;;;;;30.70;88.20;;;;;;1787001;78;20206;-75
2021/06/16 05:32:16;;;;;;;;;;;30.80;88.20;;;;;;1772959;80;20225;-75
2021/06/16 05:34:46;;;;;;;;;;;30.70;88.10;;;;;;1790093;79;20224;-75
2021/06/16 05:37:15;;;;;;;;;;;30.70;88.10;;;;;;1777142;78;20167;-75
2021/06/16 05:39:45;;;;;;;;;;;30.60;88.40;;;;;;1777979;78;20495;-75
2021/06/16 05:42:15;;;;;;;;;;;30.60;88.80;;;;;;1781599;78;20238;-75
2021/06/16 05:44:45;;;;;;;;;;;30.60;89.10;;;;;;1748834;80;20245;-77
2021/06/16 05:47:14;;;;;;;;;;;30.60;89.00;;;;;;1772927;79;20401;-75
2021/06/16 05:49:44;;;;;;;;;;;30.70;89.00;;;;;;1793903;78;20183;-76
2021/06/16 05:52:14;;;;;;;;;;;30.70;88.40;;;;;;1802212;79;20196;-77
2021/06/16 05:54:44;;;;;;;;;;;30.70;87.50;;;;;;1808931;78;20564;-76
2021/06/16 05:57:14;;;;;;;;;;;30.80;87.40;;;;;;1794804;79;20279;-76
2021/06/16 05:59:47;;;;;;;;;;;30.90;88.20;;;;;;1765868;80;20179;-76
2021/06/16 06:02:17;;;;;;;;;;;31.00;87.90;;;;;;1805961;78;20212;-76
2021/06/16 06:04:46;;;;;;;;;;;31.10;88.10;;;;;;1797427;78;20181;-76
2021/06/16 06:07:16;;;;;;;;;;;31.30;87.50;;;;;;1793595;79;20554;-76
2021/06/16 06:09:46;;;;;;;;;;;31.40;86.60;;;;;;1793220;78;20225;-76
2021/06/16 06:12:16;;;;;;;;;;;31.50;86.20;;;;;;1802229;78;20225;-76
2021/06/16 06:14:47;;;;;;;;;;;31.50;86.70;;;;;;1806189;78;20170;-75
2021/06/16 06:17:18;;;;;;;;;;;31.50;85.10;;;;;;1841590;77;20245;-75
2021/06/16 06:19:50;;;;;;;;;;;31.50;85.30;;;;;;1847874;76;20176;-76
2021/06/16 06:22:19;;;;;;;;;;;31.50;86.20;;;;;;1847179;77;20189;-76
2021/06/16 06:24:49;;;;;;;;;;;31.50;84.70;;;;;;1815288;77;20193;-76
2021/06/16 06:27:19;;;;;;;;;;;31.40;85.10;;;;;;1847695;76;20212;-76
2021/06/16 06:29:48;;;;;;;;;;;31.30;85.80;;;;;;1836478;77;20248;-76
2021/06/16 06:32:18;;;;;;;;;;;31.30;84.90;;;;;;1832078;76;20237;-76
2021/06/16 06:34:49;;;;;;;;;;;31.30;84.10;;;;;;1842956;76;20190;-76
2021/06/16 06:37:19;;;;;;;;;;;31.30;83.00;;;;;;1834298;76;20198;-76
2021/06/16 06:39:49;;;;;;;;;;;31.30;84.80;;;;;;1832016;77;20161;-77
2021/06/16 06:42:19;;;;;;;;;;;31.20;84.50;;;;;;1840917;77;20190;-77
2021/06/16 06:44:50;;;;;;;;;;;31.20;84.60;;;;;;1841720;76;20218;-76
2021/06/16 06:47:25;;;;;;;;;;;31.20;84.10;;;;;;1849517;75;20481;-76
2021/06/16 06:49:52;;;;;;;;;;;31.30;83.90;;;;;;1843410;76;20230;-76
2021/06/16 06:52:22;;;;;;;;;;;31.50;84.10;;;;;;1843803;76;20202;-76
2021/06/16 06:54:54;;;;;;;;;;;31.60;83.00;;;;;;1836285;77;20183;-76
2021/06/16 06:57:24;;;;;;;;;;;31.70;81.70;;;;;;1846661;77;20185;-76
2021/06/16 06:59:54;;;;;;;;;;;31.60;82.20;;;;;;1842635;77;20154;-76
2021/06/16 07:02:26;;;;;;;;;;;31.60;83.00;;;;;;1847108;76;20538;-77
2021/06/16 07:04:56;;;;;;;;;;;31.50;83.80;;;;;;1834101;76;20238;-76
2021/06/16 07:07:25;;;;;;;;;;;31.40;84.80;;;;;;1814989;77;20248;-75
2021/06/16 07:10:02;;;;;;;;;;;31.40;84.30;;;;;;1831588;77;20220;-75
2021/06/16 07:12:33;;;;;;;;;;;31.50;85.20;;;;;;1823567;77;20241;-75
2021/06/16 07:15:06;;;;;;;;;;;31.60;84.50;;;;;;1798825;78;20239;-75
2021/06/16 07:17:39;;;;;;;;;;;31.70;82.30;;;;;;1800520;79;20275;-75
2021/06/16 07:20:11;;;;;;;;;;;31.80;81.90;;;;;;1787661;78;20174;-75
2021/06/16 07:22:42;;;;;;;;;;;31.80;81.10;;;;;;1815039;78;20163;-75
2021/06/16 07:25:17;;;;;;;;;;;31.80;81.10;;;;;;1810866;78;20152;-75
2021/06/16 07:27:47;;;;;;;;;;;31.80;81.70;;;;;;1811422;78;20168;-76
2021/06/16 07:30:17;;;;;;;;;;;31.80;81.00;;;;;;1795838;77;20636;-75
2021/06/16 07:32:55;;;;;;;;;;;31.90;80.90;;;;;;1808117;77;20246;-76
2021/06/16 07:35:20;;;;;;;;;;;32.00;79.70;;;;;;1803171;77;20453;-74
2021/06/16 07:37:51;;;;;;;;;;;32.00;80.60;;;;;;1810077;78;20184;-76
2021/06/16 07:40:23;;;;;;;;;;;32.00;80.70;;;;;;1803215;77;20210;-76
2021/06/16 07:42:53;;;;;;;;;;;32.00;80.10;;;;;;1803687;78;20255;-76
2021/06/16 07:45:22;;;;;;;;;;;31.90;79.10;;;;;;1803956;78;20212;-77
2021/06/16 07:47:52;;;;;;;;;;;31.90;79.20;;;;;;1790792;78;20228;-76
2021/06/16 07:50:22;;;;;;;;;;;31.90;79.40;;;;;;1793537;79;20204;-76
2021/06/16 07:52:56;;;;;;;;;;;31.80;79.70;;;;;;1795273;79;20180;-77
2021/06/16 07:55:24;;;;;;;;;;;31.80;79.80;;;;;;1819424;77;20266;-76
2021/06/16 07:57:54;;;;;;;;;;;31.80;80.40;;;;;;1829252;77;20195;-75
2021/06/16 08:00:24;;;;;;;;;;;31.80;79.70;;;;;;1835463;76;20219;-76
2021/06/16 08:02:54;;;;;;;;;;;31.80;80.40;;;;;;1832150;77;20237;-74
2021/06/16 08:05:24;;;;;;;;;;;31.80;80.80;;;;;;1805044;78;20184;-76
2021/06/16 08:07:54;;;;;;;;;;;31.80;79.70;;;;;;1834095;77;20191;-76
2021/06/16 08:10:25;;;;;;;;;;;31.80;79.90;;;;;;1834981;77;20765;-75
2021/06/16 08:12:56;;;;;;;;;;;31.80;80.80;;;;;;1840541;76;20233;-75
2021/06/16 08:15:27;;;;;;;;;;;31.60;80.10;;;;;;1831937;77;20234;-76
2021/06/16 08:17:57;;;;;;;;;;;31.60;80.40;;;;;;1831613;77;20207;-76
2021/06/16 08:20:27;;;;;;;;;;;31.50;81.20;;;;;;1836519;77;20255;-76
2021/06/16 08:22:58;;;;;;;;;;;31.50;81.50;;;;;;1834181;77;20195;-76
2021/06/16 08:25:27;;;;;;;;;;;31.40;81.30;;;;;;1836875;77;20452;-75
2021/06/16 08:27:57;;;;;;;;;;;31.40;81.20;;;;;;1832461;77;20246;-75
2021/06/16 08:30:28;;;;;;;;;;;31.40;82.10;;;;;;1819505;78;20157;-76
2021/06/16 08:32:57;;;;;;;;;;;31.40;81.70;;;;;;1809240;78;20126;-75
2021/06/16 08:35:27;;;;;;;;;;;31.40;80.30;;;;;;1800437;78;20220;-76
2021/06/16 08:37:57;;;;;;;;;;;31.40;80.90;;;;;;1803863;78;20228;-76
2021/06/16 08:40:26;;;;;;;;;;;31.50;80.80;;;;;;1810524;78;20200;-76
2021/06/16 08:42:56;;;;;;;;;;;31.50;80.10;;;;;;1816774;78;20212;-76
2021/06/16 08:45:27;;;;;;;;;;;31.60;79.70;;;;;;1803795;78;20223;-76
2021/06/16 08:47:56;;;;;;;;;;;31.60;79.60;;;;;;1811303;78;20526;-77
2021/06/16 08:50:28;;;;;;;;;;;31.70;79.80;;;;;;1798115;78;20243;-76
2021/06/16 08:52:58;;;;;;;;;;;31.80;79.50;;;;;;1807366;77;20232;-77
2021/06/16 08:55:28;;;;;;;;;;;31.80;79.10;;;;;;1797958;79;20251;-76
2021/06/16 08:57:58;;;;;;;;;;;31.80;78.60;;;;;;1798704;78;20227;-76
2021/06/16 09:00:27;;;;;;;;;;;31.80;78.10;;;;;;1800590;79;20566;-78
2021/06/16 09:02:57;;;;;;;;;;;31.80;76.60;;;;;;1803394;79;20216;-76
2021/06/16 09:05:28;;;;;;;;;;;31.80;77.20;;;;;;1808071;78;20182;-76
2021/06/16 09:07:58;;;;;;;;;;;31.70;77.30;;;;;;1802175;79;20535;-77
2021/06/16 09:10:28;;;;;;;;;;;31.70;77.80;;;;;;1783421;79;20227;-76
2021/06/16 09:12:59;;;;;;;;;;;31.80;77.90;;;;;;1802799;79;20235;-76
2021/06/16 09:15:30;;;;;;;;;;;31.80;78.40;;;;;;1810346;79;20208;-77
2021/06/16 09:18:01;;;;;;;;;;;31.80;78.40;;;;;;1807013;79;20244;-77
2021/06/16 09:20:32;;;;;;;;;;;31.80;78.10;;;;;;1774462;80;20194;-77
2021/06/16 09:23:03;;;;;;;;;;;31.80;77.70;;;;;;1773292;80;20175;-76
2021/06/16 09:25:32;;;;;;;;;;;31.80;78.00;;;;;;1771800;79;20202;-76
2021/06/16 09:28:03;;;;;;;;;;;31.80;77.50;;;;;;1759769;81;20211;-77
2021/06/16 09:30:34;;;;;;;;;;;31.80;78.10;;;;;;1757005;81;20163;-77
2021/06/16 09:33:05;;;;;;;;;;;31.80;78.30;;;;;;1735370;78;20221;-78
2021/06/16 09:35:36;;;;;;;;;;;31.80;77.40;;;;;;1811723;79;20148;-77
2021/06/16 09:38:07;;;;;;;;;;;31.80;77.70;;;;;;1802498;78;20242;-76
2021/06/16 09:40:38;;;;;;;;;;;31.80;78.60;;;;;;1822448;76;20519;-76
2021/06/16 09:43:10;;;;;;;;;;;31.80;78.30;;;;;;1798984;78;20171;-78
2021/06/16 09:45:41;;;;;;;;;;;31.80;78.10;;;;;;1803076;78;20240;-76
2021/06/16 09:48:12;;;;;;;;;;;31.80;77.50;;;;;;1797031;79;20231;-76
2021/06/16 09:50:42;;;;;;;;;;;31.70;77.30;;;;;;1812818;77;20200;-75
2021/06/16 09:53:11;;;;;;;;;;;31.70;78.90;;;;;;1811353;79;20173;-75
2021/06/16 09:55:41;;;;;;;;;;;31.70;78.60;;;;;;1806752;79;20199;-76
2021/06/16 09:58:15;;;;;;;;;;;31.60;79.70;;;;;;1815869;77;20239;-75
2021/06/16 10:00:44;;;;;;;;;;;31.60;79.50;;;;;;1807074;78;20526;-76
2021/06/16 10:03:15;;;;;;;;;;;31.50;79.60;;;;;;1816841;78;20223;-78
2021/06/16 10:06:06;;;;;;;;;;;31.50;79.60;;;;;;1748752;80;20206;-76
2021/06/16 10:08:35;;;;;;;;;;;31.50;79.80;;;;;;1817301;77;20139;-80
2021/06/16 10:11:06;;;;;;;;;;;31.50;79.50;;;;;;1822515;77;20171;-77
2021/06/16 10:13:36;;;;;;;;;;;31.50;78.90;;;;;;1817606;78;20235;-76
2021/06/16 10:16:06;;;;;;;;;;;31.50;79.40;;;;;;1809868;79;20218;-76
2021/06/16 10:18:44;;;;;;;;;;;31.50;79.00;;;;;;1808046;78;20233;-76
2021/06/16 10:21:09;;;;;;;;;;;31.50;79.30;;;;;;1842303;77;20189;-76
2021/06/16 10:23:38;;;;;;;;;;;31.50;79.20;;;;;;1844761;78;20508;-76
2021/06/16 10:26:09;;;;;;;;;;;31.50;79.30;;;;;;1844395;78;20225;-76
2021/06/16 10:28:41;;;;;;;;;;;31.50;79.00;;;;;;1810072;77;20221;-77
2021/06/16 10:31:11;;;;;;;;;;;31.40;78.80;;;;;;1800607;79;20505;-75
2021/06/16 10:33:42;;;;;;;;;;;31.40;78.90;;;;;;1789933;79;20227;-75
2021/06/16 10:36:14;;;;;;;;;;;31.40;78.90;;;;;;1791420;79;20299;-77
2021/06/16 10:38:45;;;;;;;;;;;31.40;79.20;;;;;;1751364;80;20180;-75
2021/06/16 10:41:14;;;;;;;;;;;31.40;79.30;;;;;;1770075;80;20432;-76
2021/06/16 10:43:45;;;;;;;;;;;31.40;79.50;;;;;;1786145;79;20178;-76
2021/06/16 10:46:16;;;;;;;;;;;31.30;79.40;;;;;;1811290;77;20259;-77
2021/06/16 10:48:49;;;;;;;;;;;31.30;79.40;;;;;;1804766;78;20499;-75
2021/06/16 10:51:19;;;;;;;;;;;31.30;80.00;;;;;;1789713;79;20208;-78
2021/06/16 10:53:50;;;;;;;;;;;31.30;80.10;;;;;;1791616;79;20227;-78
2021/06/16 10:56:21;;;;;;;;;;;31.30;80.40;;;;;;1787180;79;20261;-78
2021/06/16 10:58:51;;;;;;;;;;;31.30;80.20;;;;;;1782863;79;20187;-77
2021/06/16 11:01:21;;;;;;;;;;;31.30;80.80;;;;;;1794929;79;20446;-77
2021/06/16 11:03:51;;;;;;;;;;;31.20;80.90;;;;;;1780967;79;20218;-77
2021/06/16 11:06:22;;;;;;;;;;;31.20;80.70;;;;;;1806667;79;20303;-77
2021/06/16 11:08:52;;;;;;;;;;;31.20;80.60;;;;;;1803530;79;20231;-77
2021/06/16 11:11:23;;;;;;;;;;;31.20;80.90;;;;;;1802026;79;20269;-79
2021/06/16 11:13:53;;;;;;;;;;;31.10;80.80;;;;;;1805318;79;20235;-77
2021/06/16 11:16:24;;;;;;;;;;;31.20;80.70;;;;;;1789111;79;20195;-77
2021/06/16 11:18:55;;;;;;;;;;;31.10;80.90;;;;;;1783429;79;20188;-77
2021/06/16 11:21:25;;;;;;;;;;;31.10;81.00;;;;;;1799406;79;20157;-77
2021/06/16 11:23:54;;;;;;;;;;;31.10;81.30;;;;;;1803436;79;20157;-77
2021/06/16 11:26:25;;;;;;;;;;;31.00;81.30;;;;;;1798899;79;20245;-76
2021/06/16 11:28:55;;;;;;;;;;;31.00;81.30;;;;;;1781796;79;20507;-77
2021/06/16 11:31:25;;;;;;;;;;;31.00;81.40;;;;;;1794526;79;20219;-77
2021/06/16 11:33:55;;;;;;;;;;;31.00;81.50;;;;;;1786832;79;20405;-77
2021/06/16 11:36:27;;;;;;;;;;;30.90;81.40;;;;;;1793179;79;20220;-77
2021/06/16 11:38:58;;;;;;;;;;;30.90;81.70;;;;;;1790836;77;20581;-77
2021/06/16 11:41:28;;;;;;;;;;;30.90;81.90;;;;;;1781807;79;20255;-76
2021/06/16 11:43:59;;;;;;;;;;;30.90;82.00;;;;;;1787345;79;20200;-76
2021/06/16 11:46:30;;;;;;;;;;;30.90;82.20;;;;;;1802535;79;20600;-75
2021/06/16 11:49:00;;;;;;;;;;;30.90;82.00;;;;;;1805834;79;20224;-76
2021/06/16 11:51:32;;;;;;;;;;;30.90;82.00;;;;;;1814979;78;20200;-75
2021/06/16 11:54:03;;;;;;;;;;;30.80;82.30;;;;;;1815577;79;20222;-75
2021/06/16 11:56:34;;;;;;;;;;;30.80;82.40;;;;;;1810524;79;20199;-77
2021/06/16 11:59:03;;;;;;;;;;;30.80;82.40;;;;;;1816656;79;20636;-77
2021/06/16 12:01:33;;;;;;;;;;;30.80;82.60;;;;;;1820287;78;20447;-77
2021/06/16 12:04:03;;;;;;;;;;;30.80;82.70;;;;;;1810133;78;20277;-77
2021/06/16 12:06:33;;;;;;;;;;;30.70;83.70;;;;;;1815269;79;20276;-76
2021/06/16 12:09:03;;;;;;;;;;;30.70;83.00;;;;;;1812092;77;20789;-77
2021/06/16 12:11:36;;;;;;;;;;;30.70;83.20;;;;;;1781051;79;20190;-77
2021/06/16 12:14:06;;;;;;;;;;;30.60;83.30;;;;;;1810962;78;20212;-77
2021/06/16 12:16:37;;;;;;;;;;;30.60;83.40;;;;;;1810676;77;20253;-76
2021/06/16 12:19:08;;;;;;;;;;;30.60;83.70;;;;;;1798151;78;20243;-77
2021/06/16 12:21:40;;;;;;;;;;;30.60;83.80;;;;;;1793651;78;20405;-77
2021/06/16 12:24:11;;;;;;;;;;;30.50;83.80;;;;;;1798889;79;20208;-78
2021/06/16 12:26:41;;;;;;;;;;;30.50;84.20;;;;;;1811420;78;20265;-77
2021/06/16 12:29:11;;;;;;;;;;;30.50;84.50;;;;;;1815025;77;20258;-77
2021/06/16 12:31:46;;;;;;;;;;;30.50;84.70;;;;;;1813063;78;20176;-77
2021/06/16 12:34:14;;;;;;;;;;;30.50;84.90;;;;;;1815600;78;20190;-77
2021/06/16 12:36:45;;;;;;;;;;;30.50;84.80;;;;;;1774020;79;20212;-77
2021/06/16 12:39:21;;;;;;;;;;;30.50;84.80;;;;;;1719769;80;20211;-77
2021/06/16 12:41:48;;;;;;;;;;;30.50;85.10;;;;;;1771329;79;20191;-78
2021/06/16 12:44:17;;;;;;;;;;;30.40;85.10;;;;;;1794595;79;20568;-89
2021/06/16 12:46:49;;;;;;;;;;;30.40;85.40;;;;;;1798949;78;20173;-90
2021/06/16 12:49:19;;;;;;;;;;;30.40;85.80;;;;;;1837546;78;20155;-89
2021/06/16 12:51:49;;;;;;;;;;;30.40;85.90;;;;;;1822779;77;20168;-90
2021/06/16 12:54:20;;;;;;;;;;;30.30;86.00;;;;;;1822547;77;20130;-90
2021/06/16 12:56:50;;;;;;;;;;;30.30;86.20;;;;;;1841413;78;20199;-88
2021/06/16 12:59:21;;;;;;;;;;;30.30;86.50;;;;;;1842896;76;20210;-89
2021/06/16 13:01:52;;;;;;;;;;;30.30;86.80;;;;;;1839196;78;20194;-90
2021/06/16 13:04:23;;;;;;;;;;;30.20;86.70;;;;;;1842967;76;20211;-89
2021/06/16 13:06:55;;;;;;;;;;;30.20;87.00;;;;;;1828949;78;20198;-89
2021/06/16 13:09:25;;;;;;;;;;;30.20;86.70;;;;;;1844901;78;20214;-90
2021/06/16 13:11:56;;;;;;;;;;;30.20;86.30;;;;;;1840828;76;20429;-89
2021/06/16 13:14:30;;;;;;;;;;;30.20;86.20;;;;;;1831874;78;20238;-89
2021/06/16 13:17:04;;;;;;;;;;;30.20;86.60;;;;;;1841335;78;20237;-90
2021/06/16 13:19:34;;;;;;;;;;;30.10;86.50;;;;;;1827165;78;20181;-90
2021/06/16 13:22:07;;;;;;;;;;;30.10;86.60;;;;;;1828675;77;20244;-88
2021/06/16 13:24:37;;;;;;;;;;;30.00;87.00;;;;;;1824159;78;20168;-90
2021/06/16 13:27:07;;;;;;;;;;;29.90;87.20;;;;;;1830321;78;20173;-89
2021/06/16 13:29:37;;;;;;;;;;;29.80;87.40;;;;;;1835790;78;20178;-90
2021/06/16 13:32:08;;;;;;;;;;;29.80;88.10;;;;;;1824337;78;20159;-91
2021/06/16 13:34:39;;;;;;;;;;;29.70;88.60;;;;;;1826372;78;20207;-90
2021/06/16 13:37:09;;;;;;;;;;;29.70;88.60;;;;;;1825610;78;20530;-91
2021/06/16 13:39:39;;;;;;;;;;;29.50;88.70;;;;;;1830286;77;20175;-92
2021/06/16 13:42:09;;;;;;;;;;;29.50;89.20;;;;;;1799389;79;20183;-89
2021/06/16 13:44:39;;;;;;;;;;;29.40;89.90;;;;;;1811817;79;20199;-91
2021/06/16 13:47:09;;;;;;;;;;;29.40;90.10;;;;;;1809122;79;20196;-90
2021/06/16 13:49:40;;;;;;;;;;;29.40;90.30;;;;;;1804028;77;20186;-90
2021/06/16 13:52:13;;;;;;;;;;;29.30;90.30;;;;;;1815118;78;20270;-91
2021/06/16 13:54:43;;;;;;;;;;;29.30;90.50;;;;;;1815014;79;20315;-89
2021/06/16 13:57:14;;;;;;;;;;;29.20;90.70;;;;;;1817035;78;20458;-92
2021/06/16 13:59:49;;;;;;;;;;;29.20;90.70;;;;;;1795293;78;20187;-90
2021/06/16 14:02:19;;;;;;;;;;;29.10;90.80;;;;;;1810960;78;20258;-89
2021/06/16 14:04:48;;;;;;;;;;;29.10;90.80;;;;;;1796569;79;20182;-90
2021/06/16 14:07:18;;;;;;;;;;;29.00;91.00;;;;;;1780408;79;20261;-89
2021/06/16 14:09:57;;;;;;;;;;;28.90;91.30;;;;;;1818308;77;20464;-92
2021/06/16 14:12:27;;;;;;;;;;;28.80;91.50;;;;;;1811924;78;20196;-89
2021/06/16 14:14:56;;;;;;;;;;;28.70;91.70;;;;;;1804364;77;20156;-91
2021/06/16 14:17:27;;;;;;;;;;;28.70;91.90;;;;;;1817139;77;20199;-91
2021/06/16 14:19:56;;;;;;;;;;;28.60;92.00;;;;;;1815297;79;20180;-91
2021/06/16 14:22:38;;;;;;;;;;;28.60;92.00;;;;;;1819398;77;20180;-91
2021/06/16 14:25:13;;;;;;;;;;;28.50;92.20;;;;;;1799964;78;20221;-91
2021/06/16 14:27:44;;;;;;;;;;;28.50;92.20;;;;;;1816647;77;20494;-93
2021/06/16 14:30:25;;;;;;;;;;;28.50;92.30;;;;;;1814654;79;20240;-92
2021/06/16 14:32:54;;;;;;;;;;;28.60;92.30;;;;;;1765161;80;20218;-93
2021/06/16 14:35:24;;;;;;;;;;;28.60;92.30;;;;;;1737218;80;20517;-91